Time;durP1;ratioP1;P1;durP2;ratioP2;P2;SDS_P1;SDS_P2;PMS_P1;PMS_P2;Temp;Humidity;BMP_temperature;BMP_pressure;BME280_temperature;BME280_humidity;BME280_pressure;Samples;Min_cycle;Max_cycle;Signal;HPM_P1;HPM_P2
2023/06/29 00:01:14;;;;;;;5.43;3.93;;;;;;;17.78;70.56;96966.38;5087700;28;20195;-77
2023/06/29 00:04:35;;;;;;;4.23;3.83;;;;;;;17.78;70.55;96970.81;5087447;28;20192;-78
2023/06/29 00:07:58;;;;;;;5.43;4.10;;;;;;;17.64;70.87;96960.53;5082841;28;20221;-76
2023/06/29 00:11:18;;;;;;;4.53;3.63;;;;;;;17.40;71.66;96942.22;5085179;28;20243;-79
2023/06/29 00:14:54;;;;;;;4.10;3.70;;;;;;;17.20;71.38;96935.00;5086781;28;20229;-77
2023/06/29 00:18:15;;;;;;;4.47;3.80;;;;;;;17.40;71.03;96952.69;5087509;28;20201;-75
2023/06/29 00:21:36;;;;;;;4.63;3.80;;;;;;;17.46;71.82;96928.66;5086978;28;20198;-75
2023/06/29 00:24:59;;;;;;;4.73;4.23;;;;;;;17.56;72.19;96941.91;5086457;28;20295;-74
2023/06/29 00:28:20;;;;;;;4.87;4.27;;;;;;;17.53;72.35;96935.16;5086931;28;20277;-74
2023/06/29 00:31:40;;;;;;;4.73;3.83;;;;;;;17.53;73.25;96942.16;5087589;28;20242;-77
2023/06/29 00:35:01;;;;;;;5.10;3.80;;;;;;;17.31;74.30;96948.09;5084534;28;20187;-79
2023/06/29 00:38:22;;;;;;;5.13;4.20;;;;;;;17.21;74.39;96946.31;5100986;28;20788;-79
2023/06/29 00:41:42;;;;;;;6.63;4.27;;;;;;;17.38;75.59;96953.72;5086082;28;20193;-75
2023/06/29 00:45:03;;;;;;;4.03;3.63;;;;;;;17.33;75.69;96925.28;5085218;28;20216;-77
2023/06/29 00:48:24;;;;;;;7.20;3.90;;;;;;;17.24;75.48;96910.28;5087206;28;20216;-75
2023/06/29 00:51:45;;;;;;;4.00;3.50;;;;;;;17.18;75.38;96915.97;5086468;28;20728;-75
2023/06/29 00:55:05;;;;;;;4.27;3.87;;;;;;;17.34;76.55;96958.38;5083898;28;20230;-76
2023/06/29 00:58:26;;;;;;;4.67;3.90;;;;;;;17.36;77.32;96966.09;5086718;28;20196;-72
2023/06/29 01:01:47;;;;;;;5.13;4.03;;;;;;;17.25;77.45;96959.03;5087271;28;20288;-73
2023/06/29 01:05:09;;;;;;;4.77;3.70;;;;;;;17.28;77.85;96971.91;5084676;28;20220;-73
2023/06/29 01:08:38;;;;;;;4.00;3.60;;;;;;;17.11;76.23;96956.59;5085785;28;20326;-74
2023/06/29 01:11:59;;;;;;;4.03;3.20;;;;;;;16.95;75.95;96962.13;5085902;28;20192;-72
2023/06/29 01:15:20;;;;;;;5.67;3.43;;;;;;;16.93;77.69;96956.16;5084852;28;20193;-73
2023/06/29 01:18:41;;;;;;;3.90;3.33;;;;;;;17.06;75.57;96966.59;5085075;28;20193;-73
2023/06/29 01:22:01;;;;;;;5.37;3.30;;;;;;;17.02;76.13;96967.75;5084265;28;20684;-74
2023/06/29 01:25:22;;;;;;;4.57;3.83;;;;;;;16.87;77.12;96961.84;5086132;28;20212;-74
2023/06/29 01:28:43;;;;;;;3.43;3.00;;;;;;;17.01;75.52;96937.28;5084365;28;20638;-74
2023/06/29 01:32:04;;;;;;;4.23;3.27;;;;;;;17.38;73.75;96949.34;5086903;28;20197;-74
2023/06/29 01:35:24;;;;;;;5.50;3.90;;;;;;;17.54;77.47;96955.13;5084808;28;20217;-74
2023/06/29 01:38:45;;;;;;;4.67;4.10;;;;;;;17.52;78.53;96951.78;5085469;28;20704;-74
2023/06/29 01:42:06;;;;;;;4.90;4.27;;;;;;;17.47;80.14;96947.81;5083376;28;20190;-73
2023/06/29 01:45:27;;;;;;;6.73;4.17;;;;;;;17.54;80.83;96960.38;5084699;28;20222;-73
2023/06/29 01:48:48;;;;;;;5.03;4.20;;;;;;;17.57;81.32;96948.84;5088492;28;20192;-75
2023/06/29 01:52:08;;;;;;;5.50;4.13;;;;;;;17.50;81.04;96947.63;5087659;28;20201;-75
2023/06/29 01:55:29;;;;;;;4.70;4.17;;;;;;;17.48;81.47;96946.84;5086873;28;20199;-74
2023/06/29 01:58:50;;;;;;;4.50;4.07;;;;;;;17.40;80.54;96925.66;5087965;28;20571;-75
2023/06/29 02:02:11;;;;;;;4.50;3.67;;;;;;;17.57;77.95;96930.50;5088403;28;20217;-74
2023/06/29 02:05:32;;;;;;;3.83;3.40;;;;;;;17.76;74.20;96931.59;5088026;28;20213;-75
2023/06/29 02:08:53;;;;;;;4.27;3.50;;;;;;;17.66;73.16;96928.00;5086547;28;20221;-74
2023/06/29 02:12:17;;;;;;;3.50;3.20;;;;;;;17.28;70.74;96919.56;5087276;28;20186;-79
2023/06/29 02:15:38;;;;;;;4.93;3.77;;;;;;;17.48;71.17;96907.59;5089794;28;20193;-75
2023/06/29 02:19:00;;;;;;;3.67;3.33;;;;;;;17.47;73.13;96925.09;5089835;28;20182;-74
2023/06/29 02:22:21;;;;;;;4.27;3.70;;;;;;;17.76;73.53;96949.13;5089074;28;20188;-77
2023/06/29 02:25:42;;;;;;;3.83;3.43;;;;;;;17.62;73.77;96950.16;5088127;28;20295;-77
2023/06/29 02:29:02;;;;;;;3.90;3.50;;;;;;;17.40;74.06;96929.13;5089028;28;20186;-78
2023/06/29 02:32:23;;;;;;;3.63;3.33;;;;;;;17.42;73.27;96913.28;5089656;28;20190;-75
2023/06/29 02:35:44;;;;;;;4.67;3.83;;;;;;;17.46;73.93;96925.19;5089320;28;20234;-80
2023/06/29 02:39:05;;;;;;;5.20;3.90;;;;;;;17.53;73.21;96932.53;5088030;28;20193;-78
2023/06/29 02:42:26;;;;;;;4.70;3.73;;;;;;;17.62;72.73;96939.69;5086343;28;20264;-76
2023/06/29 02:45:47;;;;;;;3.30;2.80;;;;;;;17.49;70.73;96931.09;5089268;28;20477;-74
2023/06/29 02:49:11;;;;;;;3.70;3.00;;;;;;;17.37;69.77;96947.66;5087647;28;20194;-79
2023/06/29 02:52:33;;;;;;;4.00;3.10;;;;;;;17.47;68.49;96951.28;5086654;28;20193;-80
2023/06/29 02:55:54;;;;;;;4.97;3.13;;;;;;;17.64;69.73;96944.81;5087899;28;20185;-79
2023/06/29 02:59:15;;;;;;;5.80;3.60;;;;;;;17.44;69.74;96954.13;5087685;28;20218;-76
2023/06/29 03:02:35;;;;;;;4.47;3.27;;;;;;;17.53;69.67;96940.38;5087138;28;20225;-76
2023/06/29 03:05:57;;;;;;;5.30;3.33;;;;;;;17.20;71.26;96955.09;5086892;28;20223;-77
2023/06/29 03:09:19;;;;;;;4.30;3.50;;;;;;;17.07;72.07;96952.53;5068465;28;20250;-74
2023/06/29 03:12:41;;;;;;;4.87;3.93;;;;;;;16.81;73.85;96950.97;5086553;28;20192;-76
2023/06/29 03:16:02;;;;;;;4.60;4.07;;;;;;;16.92;73.74;96958.88;5099513;28;20694;-80
2023/06/29 03:19:22;;;;;;;4.33;3.30;;;;;;;16.97;73.80;96954.16;5088495;28;20187;-74
2023/06/29 03:22:43;;;;;;;4.97;3.47;;;;;;;17.16;72.43;96954.50;5087716;28;20199;-79
2023/06/29 03:26:04;;;;;;;5.47;3.27;;;;;;;17.26;71.36;96955.50;5087014;28;20217;-75
2023/06/29 03:29:25;;;;;;;4.27;3.50;;;;;;;17.26;70.57;96947.63;5085756;28;20280;-78
2023/06/29 03:32:46;;;;;;;4.80;3.33;;;;;;;17.40;70.01;96968.38;5074946;28;20188;-78
2023/06/29 03:36:11;;;;;;;6.00;3.30;;;;;;;17.68;69.82;96972.44;5105277;28;20201;-72
2023/06/29 03:39:31;;;;;;;3.50;3.07;;;;;;;17.85;69.09;96980.69;5106602;28;20236;-72
2023/06/29 03:42:53;;;;;;;4.17;3.03;;;;;;;17.94;68.71;96979.16;5099889;28;20180;-71
2023/06/29 03:46:13;;;;;;;3.87;3.47;;;;;;;18.07;68.32;96985.16;5100985;28;20214;-72
2023/06/29 03:49:34;;;;;;;5.80;3.60;;;;;;;18.11;68.58;96970.88;5108320;28;20215;-74
2023/06/29 03:52:55;;;;;;;3.80;3.40;;;;;;;18.01;70.05;96964.63;5107726;28;20567;-75
2023/06/29 03:56:15;;;;;;;4.20;3.57;;;;;;;18.13;69.41;96962.88;5092578;28;20196;-74
2023/06/29 03:59:36;;;;;;;5.37;3.43;;;;;;;18.45;68.55;96975.19;5091289;28;20892;-78
2023/06/29 04:02:57;;;;;;;3.93;3.43;;;;;;;18.82;67.96;96975.72;5107879;28;20199;-78
2023/06/29 04:06:17;;;;;;;3.80;3.47;;;;;;;18.85;67.30;96962.38;5107945;28;20371;-75
2023/06/29 04:09:39;;;;;;;4.30;3.80;;;;;;;18.92;66.69;96973.22;5092267;28;20236;-75
2023/06/29 04:13:00;;;;;;;5.30;3.87;;;;;;;19.48;65.52;96982.59;5094644;28;20605;-77
2023/06/29 04:16:20;;;;;;;5.97;3.50;;;;;;;19.62;63.15;96966.53;5094197;28;20246;-78
2023/06/29 04:19:41;;;;;;;4.23;3.80;;;;;;;20.09;61.45;96978.34;5095708;28;20188;-77
2023/06/29 04:23:02;;;;;;;4.47;3.30;;;;;;;19.83;60.92;96942.88;5095097;28;20194;-74
2023/06/29 04:26:23;;;;;;;4.37;3.57;;;;;;;20.41;60.47;96979.09;5083861;28;20224;-78
2023/06/29 04:29:43;;;;;;;4.27;3.50;;;;;;;20.24;60.09;96983.16;5084953;28;20660;-77
2023/06/29 04:32:39;;;;;;;3.87;3.13;;;;;;;20.26;60.45;96975.13;5087229;28;20718;-77
2023/06/29 04:35:09;;;;;;;4.17;3.53;;;;;;;20.05;61.12;96988.28;5084985;28;20291;-74
2023/06/29 04:38:22;;;;;;;4.87;3.53;;;;;;;19.92;60.53;96987.66;5102323;28;20192;-79
2023/06/29 04:41:43;;;;;;;4.10;3.63;;;;;;;20.60;58.69;96984.44;5087101;28;20185;-78
2023/06/29 04:45:03;;;;;;;4.30;3.37;;;;;;;20.63;58.93;96999.94;5084901;28;20206;-77
2023/06/29 04:48:28;;;;;;;4.00;3.60;;;;;;;20.01;60.20;97004.47;5085690;28;20267;-78
2023/06/29 04:51:49;;;;;;;3.50;3.13;;;;;;;19.31;62.28;97002.34;5083937;28;20196;-77
2023/06/29 04:55:10;;;;;;;3.90;3.50;;;;;;;19.60;61.68;97012.31;5084877;28;20195;-75
2023/06/29 04:58:31;;;;;;;3.30;3.00;;;;;;;19.57;61.03;97012.56;5086544;28;20196;-76
2023/06/29 05:01:52;;;;;;;4.63;3.83;;;;;;;19.84;61.13;97010.28;5086211;28;20689;-76
2023/06/29 05:05:13;;;;;;;3.90;3.50;;;;;;;20.26;60.49;97012.78;5085063;28;20327;-77
2023/06/29 05:08:33;;;;;;;4.30;3.90;;;;;;;20.48;59.74;97019.69;5083392;28;20691;-79
2023/06/29 05:11:54;;;;;;;3.43;3.13;;;;;;;20.04;59.23;97017.31;5086550;28;20192;-78
2023/06/29 05:15:15;;;;;;;5.40;3.23;;;;;;;20.13;59.22;97027.91;5085021;28;20200;-78
2023/06/29 05:18:37;;;;;;;4.67;4.23;;;;;;;20.34;59.96;97035.81;5082775;28;20276;-72
2023/06/29 05:21:57;;;;;;;4.23;3.23;;;;;;;20.37;59.42;97027.66;5068839;28;20192;-73
2023/06/29 05:25:18;;;;;;;3.90;3.23;;;;;;;20.49;60.22;97015.25;5087236;28;20726;-78
2023/06/29 05:28:39;;;;;;;6.67;3.67;;;;;;;20.57;59.38;97016.25;5088152;28;20291;-76
2023/06/29 05:31:59;;;;;;;4.30;3.90;;;;;;;21.42;56.93;97011.41;5072286;28;20673;-79
2023/06/29 05:35:20;;;;;;;3.40;3.10;;;;;;;21.86;55.22;97026.72;5084844;28;20181;-78
2023/06/29 05:38:41;;;;;;;5.43;3.40;;;;;;;21.57;56.56;97039.88;5089367;28;20751;-72
2023/06/29 05:42:02;;;;;;;3.83;3.40;;;;;;;22.06;55.71;97031.00;5089101;28;20558;-75
2023/06/29 05:45:22;;;;;;;5.33;3.47;;;;;;;22.77;53.84;97034.03;5086986;28;20226;-73
2023/06/29 05:48:43;;;;;;;5.97;3.40;;;;;;;22.85;54.38;97019.13;5103548;28;20218;-79
2023/06/29 05:51:24;;;;;;;5.83;3.87;;;;;;;22.47;56.03;97019.22;5088143;28;20628;-78
2023/06/29 05:54:47;;;;;;;4.50;3.97;;;;;;;22.67;55.58;97017.41;5103018;28;20685;-77
2023/06/29 05:58:11;;;;;;;7.03;4.40;;;;;;;22.80;54.55;97028.44;5089180;28;20192;-80
2023/06/29 06:01:31;;;;;;;4.07;3.67;;;;;;;22.03;53.81;97028.63;5087461;28;20607;-73
2023/06/29 06:04:53;;;;;;;3.47;3.17;;;;;;;22.17;55.88;97028.22;5088869;28;20215;-78
2023/06/29 06:08:13;;;;;;;4.03;3.63;;;;;;;22.62;56.26;97002.00;5089709;28;20195;-74
2023/06/29 06:10:54;;;;;;;7.10;4.30;;;;;;;22.65;55.81;97023.66;5087021;28;20211;-74
2023/06/29 06:13:21;;;;;;;5.30;3.43;;;;;;;22.71;55.54;97024.06;5086386;28;20184;-71
2023/06/29 06:15:49;;;;;;;5.53;3.17;;;;;;;22.90;54.52;97034.53;5088136;28;20297;-74
2023/06/29 06:18:56;;;;;;;5.50;3.27;;;;;;;23.22;55.31;97033.13;5087698;28;20240;-73
2023/06/29 06:22:17;;;;;;;10.67;4.50;;;;;;;23.30;54.55;97024.44;5085259;28;20202;-72
2023/06/29 06:25:38;;;;;;;4.67;3.50;;;;;;;23.14;53.78;97003.13;5086447;28;20223;-76
2023/06/29 06:28:59;;;;;;;3.60;3.20;;;;;;;22.87;51.57;97032.19;5087295;28;20198;-77
2023/06/29 06:32:21;;;;;;;3.17;2.87;;;;;;;22.67;50.07;97029.63;5088947;28;20196;-72
2023/06/29 06:35:04;;;;;;;5.33;3.17;;;;;;;22.31;51.96;97029.56;5108266;28;20185;-75
2023/06/29 06:38:01;;;;;;;3.70;2.90;;;;;;;22.26;52.24;97031.78;5106962;28;20248;-77
2023/06/29 06:41:09;;;;;;;4.40;3.00;;;;;;;21.68;54.40;97041.50;5108245;28;20190;-72
2023/06/29 06:44:30;;;;;;;3.47;2.97;;;;;;;21.73;54.29;97031.41;5106464;28;20192;-72
2023/06/29 06:47:51;;;;;;;4.37;3.10;;;;;;;21.80;54.48;97035.16;5108091;28;20280;-73
2023/06/29 06:51:11;;;;;;;4.97;3.27;;;;;;;21.61;54.77;97038.63;5106663;28;20188;-75
2023/06/29 06:54:32;;;;;;;3.97;3.57;;;;;;;21.93;53.76;97042.81;5108068;28;20707;-78
2023/06/29 06:57:53;;;;;;;4.10;3.00;;;;;;;21.84;53.61;97044.47;5107121;28;20652;-78
2023/06/29 07:01:14;;;;;;;3.93;2.63;;;;;;;21.64;54.34;97045.41;5107271;28;20189;-73
2023/06/29 07:04:34;;;;;;;6.13;2.97;;;;;;;21.78;53.62;97045.81;5108129;28;20546;-73
2023/06/29 07:07:55;;;;;;;4.30;3.10;;;;;;;22.02;53.23;97040.16;5107723;28;20679;-76
2023/06/29 07:10:31;;;;;;;3.90;3.10;;;;;;;21.89;53.73;97023.78;5105572;28;20685;-73
2023/06/29 07:12:59;;;;;;;3.90;3.23;;;;;;;21.91;52.33;97042.94;5105962;28;20276;-77
2023/06/29 07:16:06;;;;;;;3.23;2.93;;;;;;;21.70;52.28;97044.88;5106261;28;20198;-74
2023/06/29 07:19:42;;;;;;;2.90;2.37;;;;;;;21.81;52.38;97036.81;5105400;28;20284;-75
2023/06/29 07:23:03;;;;;;;4.10;2.60;;;;;;;21.48;52.38;97039.84;5104874;28;20224;-77
2023/06/29 07:26:24;;;;;;;3.90;2.80;;;;;;;21.54;52.26;97045.41;5107443;28;20228;-77
2023/06/29 07:29:46;;;;;;;3.20;2.90;;;;;;;21.80;50.93;97054.41;5104331;28;20206;-72
2023/06/29 07:33:07;;;;;;;3.50;2.70;;;;;;;21.87;50.66;97036.28;5106471;28;20190;-81
2023/06/29 07:36:16;;;;;;;3.13;2.83;;;;;;;21.90;50.21;97046.56;5104990;28;20535;-80
2023/06/29 07:39:45;;;;;;;3.63;2.73;;;;;;;22.22;49.75;97047.06;5078318;28;20197;-78
2023/06/29 07:43:06;;;;;;;5.57;3.53;;;;;;;22.54;50.20;97047.56;5088833;28;20742;-77
2023/06/29 07:46:27;;;;;;;4.10;3.10;;;;;;;22.51;49.20;97053.13;5105060;28;20714;-76
2023/06/29 07:49:49;;;;;;;3.17;2.87;;;;;;;22.08;49.21;97039.59;5088733;28;20220;-77
2023/06/29 07:53:10;;;;;;;3.40;2.67;;;;;;;21.21;51.78;97027.31;5105711;28;20196;-82
2023/06/29 07:56:30;;;;;;;3.77;2.90;;;;;;;21.81;51.77;97052.63;5104076;28;20235;-79
2023/06/29 07:59:51;;;;;;;3.10;2.80;;;;;;;22.15;49.00;97046.00;5105228;28;20292;-79
2023/06/29 08:03:25;;;;;;;5.87;3.27;;;;;;;22.07;48.65;97043.19;5105688;28;20228;-77
2023/06/29 08:06:46;;;;;;;4.20;2.60;;;;;;;22.20;50.48;97053.47;5102461;28;20297;-74
2023/06/29 08:09:27;;;;;;;3.10;2.60;;;;;;;21.86;49.74;97055.72;5102962;28;20224;-75
2023/06/29 08:12:48;;;;;;;3.60;2.23;;;;;;;21.67;51.03;97037.22;5105142;28;20731;-77
2023/06/29 08:16:09;;;;;;;3.10;2.80;;;;;;;21.98;50.86;97036.13;5105736;28;20677;-75
2023/06/29 08:19:30;;;;;;;3.00;2.77;;;;;;;22.35;49.73;97037.06;5103263;28;20186;-76
2023/06/29 08:22:51;;;;;;;3.17;2.70;;;;;;;22.72;48.79;97045.03;5104096;28;20189;-77
2023/06/29 08:25:32;;;;;;;2.83;2.53;;;;;;;22.39;50.06;97042.88;5105869;28;20300;-72
2023/06/29 08:27:59;;;;;;;3.73;2.73;;;;;;;22.43;50.96;97039.81;5085333;28;20239;-75
2023/06/29 08:30:27;;;;;;;2.97;2.43;;;;;;;22.03;49.77;97051.56;5087967;28;20194;-72
2023/06/29 08:33:14;;;;;;;2.80;2.50;;;;;;;22.23;49.72;97051.38;5105936;28;20281;-74
2023/06/29 08:36:21;;;;;;;3.33;2.77;;;;;;;21.95;49.91;97033.78;5104886;28;20227;-71
2023/06/29 08:39:42;;;;;;;4.20;2.80;;;;;;;22.22;49.77;97056.78;5105766;28;20185;-73
2023/06/29 08:43:08;;;;;;;4.30;2.23;;;;;;;22.20;50.11;97038.47;5106963;28;20194;-73
2023/06/29 08:46:29;;;;;;;7.47;3.17;;;;;;;22.54;48.13;97041.44;5104042;28;20283;-73
2023/06/29 08:49:50;;;;;;;3.63;2.40;;;;;;;22.22;49.09;97041.78;5103319;28;20554;-71
2023/06/29 08:53:12;;;;;;;3.10;2.73;;;;;;;22.35;48.85;97038.84;5104219;28;20202;-72
2023/06/29 08:56:34;;;;;;;2.50;2.30;;;;;;;22.51;48.57;97047.84;5090511;28;20281;-72
2023/06/29 08:59:56;;;;;;;4.60;2.43;;;;;;;22.60;48.49;97039.09;5108071;28;20210;-77
2023/06/29 09:03:16;;;;;;;6.20;2.60;;;;;;;22.91;48.38;97038.84;5107047;28;20201;-72
2023/06/29 09:06:40;;;;;;;3.37;2.47;;;;;;;22.26;49.73;97029.97;5107372;28;20223;-77
2023/06/29 09:10:03;;;;;;;2.50;2.30;;;;;;;22.80;48.43;97026.66;5093896;28;20234;-70
2023/06/29 09:13:23;;;;;;;3.63;2.63;;;;;;;22.84;48.38;97029.81;5108864;28;20195;-74
2023/06/29 09:16:44;;;;;;;3.10;1.97;;;;;;;22.94;47.00;97027.97;5108957;28;20186;-77
2023/06/29 09:20:15;;;;;;;1.77;1.67;;;;;;;22.67;46.57;97032.25;5106310;28;20193;-76
2023/06/29 09:23:13;;;;;;;3.47;2.33;;;;;;;22.61;47.68;97014.34;5106790;28;20633;-76
2023/06/29 09:25:41;;;;;;;2.30;2.10;;;;;;;22.65;48.08;97007.81;5108635;28;20294;-73
2023/06/29 09:28:50;;;;;;;2.93;2.17;;;;;;;23.13;48.27;97017.31;5107691;28;20291;-72
2023/06/29 09:32:14;;;;;;;3.13;2.27;;;;;;;22.64;47.26;97018.53;5105977;28;20236;-71
2023/06/29 09:35:35;;;;;;;2.97;2.00;;;;;;;22.59;47.16;97005.75;5107755;28;20351;-76
2023/06/29 09:38:58;;;;;;;4.57;2.20;;;;;;;22.88;47.78;97023.25;5110296;28;20218;-77
2023/06/29 09:42:09;;;;;;;2.20;2.00;;;;;;;23.07;45.97;97023.19;5108560;28;20193;-74
2023/06/29 09:45:30;;;;;;;2.47;2.27;;;;;;;23.31;45.04;97020.81;5108105;28;20651;-74
2023/06/29 09:48:50;;;;;;;2.20;2.00;;;;;;;22.83;46.08;97026.38;5107280;28;20663;-73
2023/06/29 09:52:12;;;;;;;2.40;2.10;;;;;;;22.80;47.77;97000.25;5106864;28;20216;-73
2023/06/29 09:55:33;;;;;;;4.47;2.77;;;;;;;22.96;47.52;97020.72;5108814;28;20229;-73
2023/06/29 09:58:54;;;;;;;3.13;2.30;;;;;;;22.90;47.20;97023.94;5107662;28;20193;-79
2023/06/29 10:02:15;;;;;;;3.73;2.03;;;;;;;23.07;47.20;97021.38;5108130;28;20180;-74
2023/06/29 10:05:36;;;;;;;3.50;2.40;;;;;;;23.50;44.99;97026.00;5109571;28;20780;-74
2023/06/29 10:08:56;;;;;;;7.63;6.30;;;;;;;23.43;45.53;97019.66;5109341;28;20828;-77
2023/06/29 10:12:18;;;;;;;3.27;2.40;;;;;;;23.16;46.01;97032.88;5106075;28;20671;-76
2023/06/29 10:15:39;;;;;;;2.17;1.90;;;;;;;23.20;46.07;97034.25;5106178;28;20188;-74
2023/06/29 10:19:03;;;;;;;1.83;1.73;;;;;;;23.09;45.08;97021.22;5107151;28;20326;-80
2023/06/29 10:22:23;;;;;;;2.53;2.10;;;;;;;23.35;44.82;97027.47;5107159;28;20293;-78
2023/06/29 10:25:54;;;;;;;2.70;2.33;;;;;;;22.98;45.96;97038.09;5106288;28;20326;-73
2023/06/29 10:29:14;;;;;;;2.13;1.93;;;;;;;22.87;46.83;97021.63;5107468;28;20880;-73
2023/06/29 10:32:41;;;;;;;3.10;1.90;;;;;;;23.42;43.74;96980.97;5107955;28;20210;-74
2023/06/29 10:36:02;;;;;;;2.67;1.93;;;;;;;23.72;43.62;97027.38;5106596;28;20230;-75
2023/06/29 10:39:23;;;;;;;2.23;1.33;;;;;;;23.35;44.59;97019.56;5108910;28;20240;-75
2023/06/29 10:42:28;;;;;;;2.07;1.87;;;;;;;23.43;44.32;97015.19;5108113;28;20710;-75
2023/06/29 10:45:09;;;;;;;3.00;1.73;;;;;;;23.29;43.97;97015.69;5105567;28;20263;-73
2023/06/29 10:47:55;;;;;;;1.60;1.50;;;;;;;23.29;43.93;97012.19;5106538;28;20218;-78
2023/06/29 10:50:49;;;;;;;2.50;1.50;;;;;;;23.09;44.04;97005.38;5104806;28;20187;-77
2023/06/29 10:53:17;;;;;;;2.30;1.57;;;;;;;22.90;44.59;96994.91;5086616;28;20368;-75
2023/06/29 10:55:52;;;;;;;2.03;1.60;;;;;;;23.10;44.01;97007.03;5088209;28;20182;-76
2023/06/29 10:58:21;;;;;;;1.70;1.60;;;;;;;22.96;44.46;96981.09;5069072;28;20575;-75
2023/06/29 11:00:53;;;;;;;2.47;1.90;;;;;;;23.42;44.14;96997.69;5087173;28;20255;-74
2023/06/29 11:04:01;;;;;;;2.67;2.17;;;;;;;23.45;43.81;96996.56;5085379;28;20201;-74
2023/06/29 11:07:26;;;;;;;2.77;2.00;;;;;;;23.43;43.69;96986.09;5086875;28;20222;-76
2023/06/29 11:10:47;;;;;;;2.17;1.97;;;;;;;23.64;43.22;96996.38;5088049;28;20196;-75
2023/06/29 11:14:08;;;;;;;3.37;1.90;;;;;;;24.00;42.78;96984.81;5087544;28;20275;-72
2023/06/29 11:17:30;;;;;;;3.13;1.80;;;;;;;24.05;41.77;96995.75;5086991;28;20248;-74
2023/06/29 11:20:58;;;;;;;3.87;1.73;;;;;;;23.59;43.13;96987.25;5083077;28;20197;-74
2023/06/29 11:24:21;;;;;;;2.17;1.70;;;;;;;23.98;42.95;96976.19;5085080;28;20196;-73
2023/06/29 11:27:43;;;;;;;2.07;1.23;;;;;;;24.05;40.36;96974.59;5071653;28;20732;-75
2023/06/29 11:31:05;;;;;;;3.87;2.40;;;;;;;24.00;42.05;96976.88;5085181;28;20186;-71
2023/06/29 11:34:25;;;;;;;3.17;2.10;;;;;;;23.83;42.12;96980.34;5084153;28;20198;-75
2023/06/29 11:37:46;;;;;;;2.30;1.80;;;;;;;23.52;43.81;96970.31;5084109;28;20710;-72
2023/06/29 11:41:07;;;;;;;2.07;1.80;;;;;;;24.00;44.01;96978.66;5084872;28;20610;-76
2023/06/29 11:44:28;;;;;;;2.30;2.10;;;;;;;24.69;42.49;96981.28;5087504;28;20323;-77
2023/06/29 11:47:51;;;;;;;2.07;1.80;;;;;;;24.51;42.23;96970.75;5086853;28;20185;-74
2023/06/29 11:51:12;;;;;;;1.80;1.60;;;;;;;24.19;43.41;96974.03;5084133;28;20671;-75
2023/06/29 11:54:33;;;;;;;2.00;1.80;;;;;;;23.84;42.67;96962.69;5083541;28;20209;-72
2023/06/29 11:57:57;;;;;;;2.00;1.73;;;;;;;24.13;43.50;96956.13;5068500;28;20697;-74
2023/06/29 12:01:17;;;;;;;1.70;1.60;;;;;;;23.60;42.95;96944.78;5084896;28;20189;-73
2023/06/29 12:04:39;;;;;;;1.97;1.60;;;;;;;23.95;42.55;96952.66;5085836;28;20288;-77
2023/06/29 12:08:01;;;;;;;3.60;1.80;;;;;;;24.06;42.49;96928.66;5088669;28;20324;-80
2023/06/29 12:11:22;;;;;;;1.97;1.57;;;;;;;24.34;43.66;96960.25;5107027;28;20477;-71
2023/06/29 12:14:43;;;;;;;2.03;1.53;;;;;;;24.43;42.64;96956.63;5086777;28;20251;-77
2023/06/29 12:18:04;;;;;;;1.60;1.50;;;;;;;24.32;41.35;96954.28;5086199;28;20226;-75
2023/06/29 12:21:25;;;;;;;2.23;1.50;;;;;;;24.20;42.79;96951.03;5066477;28;21013;-74
2023/06/29 12:24:09;;;;;;;3.63;1.63;;;;;;;24.04;42.75;96900.66;5083599;28;20279;-74
2023/06/29 12:27:16;;;;;;;2.70;1.70;;;;;;;23.86;43.30;96939.56;5069026;28;20280;-72
2023/06/29 12:30:37;;;;;;;1.73;1.43;;;;;;;23.88;42.63;96948.16;5082863;28;20227;-76
2023/06/29 12:33:58;;;;;;;2.17;1.33;;;;;;;23.95;41.84;96935.97;5068776;28;20189;-74
2023/06/29 12:37:19;;;;;;;2.07;1.80;;;;;;;24.10;42.77;96935.28;5084523;28;20193;-73
2023/06/29 12:40:39;;;;;;;2.10;1.60;;;;;;;23.97;41.39;96937.47;5084609;28;20665;-73
2023/06/29 12:44:01;;;;;;;2.50;1.20;;;;;;;23.69;41.67;96943.88;5083885;28;20274;-74
2023/06/29 12:47:22;;;;;;;2.37;1.60;;;;;;;24.15;42.59;96954.16;5067981;28;20237;-74
2023/06/29 12:50:43;;;;;;;1.60;1.50;;;;;;;24.37;42.75;96941.38;5083759;28;20741;-73
2023/06/29 12:54:05;;;;;;;1.87;1.50;;;;;;;24.59;41.85;96915.19;5084399;28;20193;-74
2023/06/29 12:57:26;;;;;;;2.73;1.90;;;;;;;24.36;41.77;96921.22;5085844;28;20206;-72
2023/06/29 13:00:47;;;;;;;1.83;1.50;;;;;;;24.12;40.54;96922.72;5085057;28;20201;-73
2023/06/29 13:04:08;;;;;;;3.50;1.20;;;;;;;24.08;40.85;96916.09;5084994;28;20196;-77
2023/06/29 13:07:29;;;;;;;6.63;1.50;;;;;;;24.31;40.39;96926.97;5083526;28;20224;-77
2023/06/29 13:10:49;;;;;;;2.67;1.50;;;;;;;24.51;40.15;96931.03;5083343;28;20252;-78
2023/06/29 13:14:10;;;;;;;1.53;1.43;;;;;;;24.25;40.05;96928.41;5085344;28;20281;-80
2023/06/29 13:17:31;;;;;;;1.77;1.53;;;;;;;24.41;39.60;96932.13;5084643;28;20629;-73
2023/06/29 13:20:52;;;;;;;1.40;1.13;;;;;;;23.99;41.74;96916.13;5083281;28;20789;-74
2023/06/29 13:24:13;;;;;;;1.63;1.50;;;;;;;24.25;41.51;96922.31;5084090;28;20195;-73
2023/06/29 13:27:33;;;;;;;2.10;1.40;;;;;;;24.11;42.25;96910.47;5085612;28;20712;-75
2023/06/29 13:30:55;;;;;;;1.70;1.30;;;;;;;24.18;39.54;96926.56;5082834;28;20282;-77
2023/06/29 13:34:16;;;;;;;1.97;1.40;;;;;;;24.44;40.53;96914.09;5084533;28;20206;-73
2023/06/29 13:37:37;;;;;;;1.33;1.20;;;;;;;24.18;41.23;96905.38;5084659;28;20196;-75
2023/06/29 13:40:59;;;;;;;2.50;1.63;;;;;;;24.27;41.21;96899.16;5083917;28;20276;-75
2023/06/29 13:44:19;;;;;;;2.10;1.90;;;;;;;24.61;40.66;96907.06;5088961;28;20194;-73
2023/06/29 13:47:41;;;;;;;2.50;1.60;;;;;;;24.64;40.03;96909.41;5085994;28;20250;-75
2023/06/29 13:50:22;;;;;;;3.17;1.50;;;;;;;24.67;40.30;96906.41;5085810;28;20195;-74
2023/06/29 13:53:41;;;;;;;1.60;1.43;;;;;;;24.64;38.37;96906.75;5056189;28;20297;-74
2023/06/29 13:57:03;;;;;;;2.77;1.70;;;;;;;24.43;39.74;96903.69;5087954;28;20188;-74
2023/06/29 14:00:24;;;;;;;2.20;1.50;;;;;;;24.82;40.21;96907.50;5085798;28;20203;-78
2023/06/29 14:03:47;;;;;;;2.67;1.53;;;;;;;24.52;40.08;96900.09;5088729;28;20197;-77
2023/06/29 14:07:10;;;;;;;3.67;1.60;;;;;;;24.56;41.33;96901.44;5089402;28;20313;-72
2023/06/29 14:10:31;;;;;;;2.50;1.63;;;;;;;24.57;42.01;96906.56;5090272;28;20234;-76
2023/06/29 14:13:52;;;;;;;3.03;1.50;;;;;;;24.52;40.43;96902.75;5088609;28;20276;-76
2023/06/29 14:17:14;;;;;;;1.63;1.30;;;;;;;24.81;40.89;96911.16;5108123;28;20304;-74
2023/06/29 14:20:35;;;;;;;2.60;1.50;;;;;;;24.55;40.74;96907.69;5106974;28;20722;-74
2023/06/29 14:23:56;;;;;;;5.53;1.73;;;;;;;24.39;40.85;96905.81;5107113;28;20187;-72
2023/06/29 14:27:18;;;;;;;2.70;1.70;;;;;;;24.32;41.05;96909.28;5107130;28;20226;-72
2023/06/29 14:30:39;;;;;;;2.47;1.50;;;;;;;24.44;41.22;96918.59;5090272;28;20259;-72
2023/06/29 14:34:00;;;;;;;1.97;1.60;;;;;;;24.23;41.02;96909.19;5108617;28;20189;-72
2023/06/29 14:37:21;;;;;;;1.93;1.73;;;;;;;24.13;42.50;96903.19;5108936;28;20278;-73
2023/06/29 14:40:45;;;;;;;2.20;1.27;;;;;;;24.36;42.66;96903.47;5108082;28;20696;-72
2023/06/29 14:43:28;;;;;;;3.50;1.60;;;;;;;24.35;42.34;96885.13;5104950;28;20188;-75
2023/06/29 14:45:56;;;;;;;1.90;1.80;;;;;;;24.56;42.22;96893.50;5072673;28;20225;-74
2023/06/29 14:48:25;;;;;;;2.63;1.57;;;;;;;24.85;41.62;96888.66;5087795;28;20688;-74
2023/06/29 14:51:35;;;;;;;1.83;1.70;;;;;;;24.63;42.28;96891.84;5086669;28;20285;-74
2023/06/29 14:54:55;;;;;;;2.37;1.80;;;;;;;24.55;43.00;96897.94;5085522;28;20194;-75
2023/06/29 14:58:17;;;;;;;3.80;1.60;;;;;;;24.55;42.53;96892.66;5087982;28;20200;-74
2023/06/29 15:01:38;;;;;;;4.73;1.70;;;;;;;24.05;43.42;96884.63;5086867;28;20193;-77
2023/06/29 15:05:00;;;;;;;1.70;1.60;;;;;;;24.21;43.92;96890.00;5070208;28;20193;-74
2023/06/29 15:07:57;;;;;;;2.50;1.50;;;;;;;24.10;44.35;96882.34;5088133;28;20231;-72
2023/06/29 15:10:24;;;;;;;3.37;2.00;;;;;;;24.01;44.90;96891.19;5088209;28;20217;-72
2023/06/29 15:12:51;;;;;;;2.10;1.90;;;;;;;24.00;44.71;96886.06;5084312;28;20196;-74
2023/06/29 15:15:33;;;;;;;2.23;1.80;;;;;;;23.95;44.54;96873.28;5087267;28;20205;-71
2023/06/29 15:18:04;;;;;;;2.23;1.80;;;;;;;24.16;43.28;96900.25;5085623;28;20286;-73
2023/06/29 15:20:32;;;;;;;2.00;1.83;;;;;;;24.09;43.71;96883.31;5086741;28;20714;-72